createdAt,value
2022-10-18T00:00:22.068Z,16.92
2022-10-18T00:02:49.271Z,17.52
2022-10-18T00:05:16.703Z,17.23
2022-10-18T00:07:44.037Z,16.08
2022-10-18T00:10:13.963Z,17.17
2022-10-18T00:12:43.595Z,15.85
2022-10-18T00:15:11.524Z,16.65
2022-10-18T00:17:39.774Z,14.85
2022-10-18T00:20:07.470Z,15.45
2022-10-18T00:22:35.971Z,14.95
2022-10-18T00:25:03.237Z,15.20
2022-10-18T00:27:30.754Z,17.20
2022-10-18T00:29:58.145Z,14.43
2022-10-18T00:32:25.520Z,15.88
2022-10-18T00:34:52.975Z,16.02
2022-10-18T00:37:20.484Z,13.77
2022-10-18T00:39:47.868Z,16.73
2022-10-18T00:42:19.204Z,14.15
2022-10-18T00:44:46.430Z,14.57
2022-10-18T00:47:15.557Z,16.50
2022-10-18T00:49:51.068Z,14.18
2022-10-18T00:52:38.476Z,15.68
2022-10-18T00:55:07.055Z,14.27
2022-10-18T00:57:34.382Z,15.30
2022-10-18T01:00:01.946Z,15.95
2022-10-18T01:02:30.185Z,15.10
2022-10-18T01:04:57.616Z,14.13
2022-10-18T01:07:45.095Z,13.95
2022-10-18T01:10:31.350Z,14.48
2022-10-18T01:13:01.773Z,13.77
2022-10-18T01:15:29.085Z,14.02
2022-10-18T01:18:05.469Z,13.73
2022-10-18T01:20:38.677Z,13.50
2022-10-18T01:23:18.603Z,14.68
2022-10-18T01:25:48.945Z,14.77
2022-10-18T01:28:25.437Z,13.43
2022-10-18T01:30:52.758Z,13.00
2022-10-18T01:33:23.075Z,13.63
2022-10-18T01:35:53.126Z,16.90
2022-10-18T01:38:21.474Z,15.13
2022-10-18T01:40:50.300Z,15.70
2022-10-18T01:43:18.541Z,17.35
2022-10-18T01:45:46.248Z,14.25
2022-10-18T01:48:14.024Z,14.18
2022-10-18T01:50:41.376Z,14.40
2022-10-18T01:53:21.663Z,14.05
2022-10-18T01:55:53.758Z,15.25
2022-10-18T01:58:31.861Z,13.85
2022-10-18T02:01:03.963Z,13.55
2022-10-18T02:03:31.414Z,13.77
2022-10-18T02:06:17.685Z,13.45
2022-10-18T02:08:51.810Z,11.45
2022-10-18T02:11:19.284Z,13.82
2022-10-18T02:13:49.297Z,14.23
2022-10-18T02:16:20.870Z,14.02
2022-10-18T02:18:50.999Z,13.88
2022-10-18T02:21:19.662Z,14.55
2022-10-18T02:23:47.511Z,14.80
2022-10-18T02:26:21.614Z,12.40
2022-10-18T02:28:48.979Z,13.70
2022-10-18T02:31:27.135Z,14.98
2022-10-18T02:33:57.463Z,13.15
2022-10-18T02:36:27.616Z,14.10
2022-10-18T02:38:57.552Z,12.65
2022-10-18T02:41:26.282Z,12.50
2022-10-18T02:43:53.772Z,12.48
2022-10-18T02:46:21.537Z,12.63
2022-10-18T02:48:49.372Z,11.57
2022-10-18T02:51:17.067Z,11.98
2022-10-18T02:53:44.555Z,11.95
2022-10-18T02:56:14.471Z,12.38
2022-10-18T02:58:41.975Z,12.15
2022-10-18T03:01:09.344Z,12.55
2022-10-18T03:03:37.334Z,12.25
2022-10-18T03:06:04.691Z,12.82
2022-10-18T03:08:31.922Z,12.30
2022-10-18T03:10:59.207Z,10.05
2022-10-18T03:13:26.394Z,10.18
2022-10-18T03:15:53.726Z,10.18
2022-10-18T03:18:20.973Z,10.63
2022-10-18T03:20:48.343Z,8.98
2022-10-18T03:23:15.699Z,8.82
2022-10-18T03:25:45.706Z,8.65
2022-10-18T03:28:13.880Z,9.00
2022-10-18T03:30:41.135Z,8.25
2022-10-18T03:33:08.623Z,8.23
2022-10-18T03:35:35.855Z,9.52
2022-10-18T03:38:03.226Z,8.68
2022-10-18T03:42:58.615Z,10.52
2022-10-18T03:45:28.949Z,10.20
2022-10-18T03:47:58.696Z,12.40
2022-10-18T03:50:25.940Z,10.50
2022-10-18T03:52:54.539Z,11.30
2022-10-18T03:55:22.110Z,10.07
2022-10-18T03:57:49.414Z,9.43
2022-10-18T04:00:16.671Z,9.27
2022-10-18T04:02:44.022Z,8.77
2022-10-18T04:05:11.322Z,9.48
2022-10-18T04:07:38.750Z,8.75
2022-10-18T04:10:06.358Z,8.80
2022-10-18T04:12:33.897Z,7.50
2022-10-18T04:15:01.878Z,7.38
2022-10-18T04:17:29.561Z,7.68
2022-10-18T04:19:57.112Z,7.72
2022-10-18T04:22:24.442Z,7.93
2022-10-18T04:24:54.411Z,8.60
2022-10-18T04:27:21.748Z,8.13
2022-10-18T04:29:49.356Z,8.70
2022-10-18T04:32:16.818Z,8.95
2022-10-18T04:34:44.278Z,9.70
2022-10-18T04:37:11.661Z,9.55
2022-10-18T04:39:39.152Z,9.00
2022-10-18T04:42:06.664Z,8.70
2022-10-18T04:44:34.506Z,9.20
2022-10-18T04:47:01.998Z,8.60
2022-10-18T04:49:29.642Z,8.25
2022-10-18T04:51:57.038Z,8.45
2022-10-18T04:54:26.559Z,8.00
2022-10-18T04:56:56.135Z,8.13
2022-10-18T04:59:24.454Z,8.02
2022-10-18T05:01:52.111Z,8.05
2022-10-18T05:04:19.663Z,8.32
2022-10-18T05:06:47.375Z,7.50
2022-10-18T05:09:14.784Z,7.35
2022-10-18T05:11:42.243Z,7.63
2022-10-18T05:14:10.951Z,7.43
2022-10-18T05:16:39.033Z,7.00
2022-10-18T05:19:06.688Z,6.88
2022-10-18T05:21:34.326Z,7.72
2022-10-18T05:24:01.701Z,6.72
2022-10-18T05:26:29.028Z,6.47
2022-10-18T05:28:56.457Z,6.28
2022-10-18T05:31:23.782Z,6.68
2022-10-18T05:33:51.251Z,7.00
2022-10-18T05:36:18.515Z,6.25
2022-10-18T05:38:47.887Z,5.70
2022-10-18T05:41:17.734Z,6.00
2022-10-18T05:43:44.987Z,5.10
2022-10-18T05:46:15.297Z,5.60
2022-10-18T05:48:44.123Z,5.85
2022-10-18T05:51:11.678Z,5.90
2022-10-18T05:53:39.180Z,6.38
2022-10-18T05:56:07.310Z,6.68
2022-10-18T05:58:42.241Z,5.82
2022-10-18T06:01:10.593Z,6.28
2022-10-18T06:03:37.959Z,6.35
2022-10-18T06:06:15.521Z,6.65
2022-10-18T06:08:44.264Z,6.47
2022-10-18T06:11:16.235Z,6.43
2022-10-18T06:13:44.523Z,6.28
2022-10-18T06:16:12.823Z,6.13
2022-10-18T06:18:40.573Z,6.50
2022-10-18T06:21:08.334Z,6.95
2022-10-18T06:23:36.490Z,5.80
2022-10-18T06:26:05.594Z,6.18
2022-10-18T06:28:35.100Z,6.82
2022-10-18T06:31:02.455Z,6.35
2022-10-18T06:33:31.617Z,5.85
2022-10-18T06:36:00.163Z,6.55
2022-10-18T06:38:28.084Z,6.65
2022-10-18T06:40:56.191Z,6.60
2022-10-18T06:43:23.937Z,7.13
2022-10-18T06:45:51.961Z,6.15
2022-10-18T06:50:54.341Z,6.60
2022-10-18T06:53:21.717Z,7.15
2022-10-18T06:55:49.077Z,7.80
2022-10-18T06:58:16.466Z,8.25
2022-10-18T07:00:47.290Z,8.18
2022-10-18T07:03:16.671Z,7.78
2022-10-18T07:05:44.255Z,8.05
2022-10-18T07:08:11.780Z,9.07
2022-10-18T07:10:40.294Z,8.45
2022-10-18T07:13:31.085Z,9.80
2022-10-18T07:16:06.273Z,9.43
2022-10-18T07:18:39.276Z,11.50
2022-10-18T07:21:08.362Z,11.30
2022-10-18T07:23:37.062Z,12.15
2022-10-18T07:26:05.708Z,13.07
2022-10-18T07:28:33.240Z,13.13
2022-10-18T07:31:06.092Z,13.57
2022-10-18T07:33:33.942Z,14.10
2022-10-18T07:36:05.399Z,33.83
2022-10-18T07:38:32.741Z,16.63
2022-10-18T07:41:04.205Z,18.77
2022-10-18T07:43:31.620Z,21.40
2022-10-18T07:46:00.694Z,18.08
2022-10-18T07:48:28.573Z,18.23
2022-10-18T07:50:58.412Z,17.17
2022-10-18T07:53:26.314Z,18.20
2022-10-18T07:55:53.773Z,19.15
2022-10-18T07:58:21.048Z,17.42
2022-10-18T08:00:48.510Z,17.42
2022-10-18T08:03:15.877Z,19.63
2022-10-18T08:05:44.222Z,18.58
2022-10-18T08:08:11.581Z,20.10
2022-10-18T08:10:39.127Z,21.38
2022-10-18T08:13:06.727Z,20.20
2022-10-18T08:15:34.073Z,21.60
2022-10-18T08:18:01.438Z,18.92
2022-10-18T08:20:32.039Z,18.23
2022-10-18T08:23:02.629Z,16.67
2022-10-18T08:25:32.534Z,13.77
2022-10-18T08:28:01.343Z,15.00
2022-10-18T08:30:28.900Z,14.13
2022-10-18T08:32:56.506Z,10.88
2022-10-18T08:35:24.195Z,10.13
2022-10-18T08:37:54.093Z,9.07
2022-10-18T08:40:21.829Z,8.35
2022-10-18T08:42:49.421Z,8.00
2022-10-18T08:45:37.297Z,7.00
2022-10-18T08:48:09.111Z,6.72
2022-10-18T08:50:38.745Z,6.22
2022-10-18T08:55:43.119Z,5.35
2022-10-18T08:58:18.690Z,5.57
2022-10-18T09:00:52.856Z,4.40
2022-10-18T09:03:32.910Z,4.20
2022-10-18T09:06:23.775Z,4.72
2022-10-18T09:08:51.281Z,4.47
2022-10-18T09:11:37.505Z,3.25
2022-10-18T09:14:23.640Z,3.05
2022-10-18T09:17:23.381Z,3.10
2022-10-18T09:22:49.526Z,3.42
2022-10-18T09:25:17.039Z,2.88
2022-10-18T09:27:47.538Z,2.70
2022-10-18T09:30:44.693Z,2.70
2022-10-18T09:33:19.854Z,2.03
2022-10-18T09:35:53.486Z,1.60
2022-10-18T09:40:55.981Z,2.20
2022-10-18T09:43:25.498Z,1.70
2022-10-18T09:45:55.418Z,1.92
2022-10-18T09:48:30.386Z,2.08
2022-10-18T09:51:00.854Z,2.22
2022-10-18T09:53:35.613Z,1.88
2022-10-18T09:56:07.476Z,1.90
2022-10-18T09:58:45.683Z,2.30
2022-10-18T10:01:22.080Z,2.50
2022-10-18T10:03:49.551Z,1.35
2022-10-18T10:06:18.761Z,1.25
2022-10-18T10:11:29.032Z,1.20
2022-10-18T10:14:10.370Z,1.13
2022-10-18T10:16:44.439Z,1.27
2022-10-18T10:19:23.711Z,2.35
2022-10-18T10:24:34.756Z,1.40
2022-10-18T10:27:03.405Z,1.05
2022-10-18T10:29:59.517Z,1.50
2022-10-18T10:32:39.408Z,2.05
2022-10-18T10:35:35.310Z,1.52
2022-10-18T10:38:22.992Z,1.60
2022-10-18T10:40:51.020Z,0.98
2022-10-18T10:43:37.057Z,1.17
2022-10-18T10:46:09.022Z,1.40
2022-10-18T10:49:04.183Z,1.10
2022-10-18T10:51:40.723Z,1.40
2022-10-18T10:54:23.281Z,3.55
2022-10-18T10:57:02.005Z,1.63
2022-10-18T10:59:35.216Z,1.58
2022-10-18T11:02:17.808Z,1.75
2022-10-18T11:04:52.454Z,1.80
2022-10-18T11:07:24.329Z,1.50
2022-10-18T11:10:01.917Z,1.05
2022-10-18T11:12:35.701Z,1.17
2022-10-18T11:15:17.130Z,1.67
2022-10-18T11:18:03.469Z,1.40
2022-10-18T11:20:34.226Z,1.40
2022-10-18T11:23:22.203Z,1.10
2022-10-18T11:26:08.066Z,1.33
2022-10-18T11:28:54.556Z,1.08
2022-10-18T11:31:42.468Z,1.13
2022-10-18T11:34:10.502Z,1.20
2022-10-18T11:36:40.334Z,1.10
2022-10-18T11:39:22.346Z,1.25
2022-10-18T11:42:14.812Z,1.13
2022-10-18T11:44:58.726Z,1.02
2022-10-18T11:47:26.085Z,1.35
2022-10-18T11:49:53.616Z,1.30
2022-10-18T11:52:27.948Z,1.20
2022-10-18T11:54:59.448Z,2.00
2022-10-18T11:57:30.222Z,1.05
2022-10-18T12:00:16.814Z,1.10
2022-10-18T12:02:53.644Z,0.98
2022-10-18T12:05:24.001Z,1.10
2022-10-18T12:08:00.880Z,1.10
2022-10-18T12:10:44.188Z,1.20
2022-10-18T12:13:19.768Z,1.27
2022-10-18T12:15:48.449Z,1.05
2022-10-18T12:18:18.300Z,1.10
2022-10-18T12:20:50.423Z,1.42
2022-10-18T12:23:21.060Z,1.15
2022-10-18T12:25:53.599Z,1.20
2022-10-18T12:28:27.296Z,1.38
2022-10-18T12:31:18.413Z,1.05
2022-10-18T12:33:47.655Z,1.00
2022-10-18T12:36:21.410Z,1.30
2022-10-18T12:38:54.884Z,1.52
2022-10-18T12:41:27.269Z,0.95
2022-10-18T12:43:57.952Z,0.90
2022-10-18T12:46:25.526Z,1.35
2022-10-18T12:49:06.257Z,1.83
2022-10-18T12:51:33.769Z,1.73
2022-10-18T12:54:01.217Z,1.35
2022-10-18T12:56:28.630Z,1.88
2022-10-18T12:59:18.016Z,1.52
2022-10-18T13:01:51.965Z,1.00
2022-10-18T13:04:28.652Z,1.33
2022-10-18T13:07:05.354Z,0.85
2022-10-18T13:09:37.081Z,0.75
2022-10-18T13:12:10.605Z,1.13
2022-10-18T13:15:12.544Z,1.60
2022-10-18T13:18:01.207Z,1.45
2022-10-18T13:20:38.204Z,1.35
2022-10-18T13:23:24.214Z,1.17
2022-10-18T13:26:10.264Z,1.80
2022-10-18T13:28:40.721Z,1.13
2022-10-18T13:31:27.189Z,1.20
2022-10-18T13:33:54.695Z,1.08
2022-10-18T13:36:26.156Z,1.00
2022-10-18T13:38:57.864Z,0.85
2022-10-18T13:41:32.772Z,0.88
2022-10-18T13:44:24.148Z,1.42
2022-10-18T13:46:51.627Z,1.33
2022-10-18T13:49:37.869Z,1.35
2022-10-18T13:52:22.728Z,0.88
2022-10-18T13:54:50.218Z,0.93
2022-10-18T13:57:22.639Z,1.10
2022-10-18T13:59:50.196Z,1.83
2022-10-18T14:02:50.962Z,1.33
2022-10-18T14:05:43.813Z,0.95
2022-10-18T14:08:29.790Z,0.90
2022-10-18T14:11:14.079Z,1.85
2022-10-18T14:14:08.302Z,0.98
2022-10-18T14:16:48.586Z,1.90
2022-10-18T14:19:35.103Z,1.33
2022-10-18T14:22:19.465Z,1.42
2022-10-18T14:24:50.959Z,1.05
2022-10-18T14:27:19.731Z,1.25
2022-10-18T14:29:51.436Z,0.80
2022-10-18T14:32:24.706Z,1.13
2022-10-18T14:34:53.881Z,1.40
2022-10-18T14:39:48.797Z,1.20
2022-10-18T14:42:21.685Z,1.40
2022-10-18T14:44:54.219Z,1.45
2022-10-18T14:47:24.330Z,1.25
2022-10-18T14:49:54.505Z,1.27
2022-10-18T14:52:30.495Z,1.23
2022-10-18T14:55:01.089Z,1.42
2022-10-18T14:57:28.614Z,2.78
2022-10-18T14:59:59.061Z,1.88
2022-10-18T15:02:27.687Z,1.52
2022-10-18T15:04:56.955Z,1.50
2022-10-18T15:07:28.914Z,1.77
2022-10-18T15:09:58.281Z,1.60
2022-10-18T15:12:26.024Z,2.00
2022-10-18T15:14:54.137Z,1.50
2022-10-18T15:17:23.939Z,1.40
2022-10-18T15:20:14.731Z,2.03
2022-10-18T15:22:42.231Z,1.60
2022-10-18T15:25:24.311Z,1.45
2022-10-18T15:27:55.704Z,1.20
2022-10-18T15:30:30.550Z,1.67
2022-10-18T15:32:59.660Z,1.55
2022-10-18T15:35:45.915Z,1.67
2022-10-18T15:38:25.940Z,1.77
2022-10-18T15:40:53.629Z,1.83
2022-10-18T15:43:23.874Z,1.83
2022-10-18T15:45:52.805Z,1.90
2022-10-18T15:48:24.979Z,2.60
2022-10-18T15:50:56.511Z,1.67
2022-10-18T15:53:34.586Z,2.10
2022-10-18T15:56:08.005Z,2.50
2022-10-18T15:58:50.223Z,1.98
2022-10-18T16:01:20.509Z,2.10
2022-10-18T16:03:48.154Z,2.53
2022-10-18T16:06:18.222Z,2.00
2022-10-18T16:08:50.047Z,2.30
2022-10-18T16:11:19.254Z,2.50
2022-10-18T16:13:46.797Z,2.85
2022-10-18T16:16:19.148Z,2.88
2022-10-18T16:18:47.125Z,2.25
2022-10-18T16:21:21.921Z,2.67
2022-10-18T16:23:50.026Z,2.17
2022-10-18T16:26:18.343Z,2.30
2022-10-18T16:28:46.331Z,2.55
2022-10-18T16:31:19.310Z,2.65
2022-10-18T16:33:47.267Z,2.38
2022-10-18T16:36:15.851Z,1.98
2022-10-18T16:38:43.662Z,2.42
2022-10-18T16:41:11.469Z,2.10
2022-10-18T16:43:39.723Z,2.08
2022-10-18T16:46:08.281Z,2.33
2022-10-18T16:48:35.748Z,2.40
2022-10-18T16:51:03.222Z,2.45
2022-10-18T16:53:33.302Z,2.75
2022-10-18T16:56:01.535Z,2.33
2022-10-18T16:58:29.976Z,3.22
2022-10-18T17:00:58.023Z,2.92
2022-10-18T17:03:25.951Z,3.35
2022-10-18T17:05:54.524Z,2.25
2022-10-18T17:08:29.710Z,3.17
2022-10-18T17:10:58.782Z,2.20
2022-10-18T17:13:26.748Z,3.60
2022-10-18T17:15:54.543Z,3.33
2022-10-18T17:18:23.491Z,3.65
2022-10-18T17:20:51.232Z,3.33
2022-10-18T17:23:19.146Z,3.92
2022-10-18T17:25:59.094Z,3.15
2022-10-18T17:28:34.999Z,2.67
2022-10-18T17:31:02.508Z,3.40
2022-10-18T17:33:30.002Z,2.80
2022-10-18T17:35:57.532Z,2.72
2022-10-18T17:38:26.566Z,3.22
2022-10-18T17:40:54.816Z,2.35
2022-10-18T17:43:25.458Z,4.10
2022-10-18T17:45:56.833Z,3.20
2022-10-18T17:48:24.687Z,2.75
2022-10-18T17:50:53.260Z,2.90
2022-10-18T17:53:23.045Z,2.73
2022-10-18T17:55:50.444Z,2.38
2022-10-18T17:58:17.868Z,3.00
2022-10-18T18:00:47.307Z,3.50
2022-10-18T18:05:42.376Z,3.00
2022-10-18T18:08:09.813Z,3.72
2022-10-18T18:10:37.443Z,3.55
2022-10-18T18:13:05.076Z,3.47
2022-10-18T18:15:32.962Z,3.17
2022-10-18T18:18:00.586Z,3.42
2022-10-18T18:20:27.958Z,4.50
2022-10-18T18:22:55.420Z,4.05
2022-10-18T18:25:22.784Z,4.03
2022-10-18T18:27:50.400Z,3.40
2022-10-18T18:30:18.115Z,4.07
2022-10-18T18:32:54.297Z,3.63
2022-10-18T18:35:22.846Z,3.83
2022-10-18T18:37:53.136Z,3.75
2022-10-18T18:40:20.835Z,3.75
2022-10-18T18:43:01.818Z,5.63
2022-10-18T18:45:35.726Z,4.10
2022-10-18T18:48:03.129Z,4.03
2022-10-18T18:50:31.942Z,4.10
2022-10-18T18:52:59.488Z,3.38
2022-10-18T18:55:26.811Z,3.53
2022-10-18T18:57:54.498Z,4.05
2022-10-18T19:00:22.260Z,4.93
2022-10-18T19:02:49.782Z,4.45
2022-10-18T19:05:17.274Z,4.25
2022-10-18T19:07:44.630Z,4.00
2022-10-18T19:10:12.079Z,4.68
2022-10-18T19:12:39.622Z,4.70
2022-10-18T19:15:07.274Z,3.85
2022-10-18T19:17:35.211Z,5.15
2022-10-18T19:20:05.081Z,4.32
2022-10-18T19:22:32.613Z,4.63
2022-10-18T19:24:59.974Z,6.80
2022-10-18T19:27:27.570Z,9.85
2022-10-18T19:29:55.024Z,11.18
2022-10-18T19:32:22.451Z,11.60
2022-10-18T19:34:49.835Z,8.65
2022-10-18T19:37:17.384Z,8.60
2022-10-18T19:39:44.778Z,9.52
2022-10-18T19:42:21.121Z,7.90
2022-10-18T19:44:53.645Z,8.07
2022-10-18T19:47:21.287Z,7.30
2022-10-18T19:49:48.759Z,7.05
2022-10-18T19:52:16.252Z,7.40
2022-10-18T19:54:47.430Z,7.82
2022-10-18T19:57:14.811Z,7.63
2022-10-18T19:59:42.124Z,7.13
2022-10-18T20:02:13.859Z,7.35
2022-10-18T20:04:41.374Z,7.70
2022-10-18T20:07:12.050Z,8.13
2022-10-18T20:09:42.519Z,6.57
2022-10-18T20:12:09.921Z,7.80
2022-10-18T20:14:37.282Z,7.20
2022-10-18T20:17:05.884Z,6.63
2022-10-18T20:19:33.375Z,7.43
2022-10-18T20:22:00.750Z,6.30
2022-10-18T20:24:28.262Z,6.63
2022-10-18T20:26:55.573Z,6.43
2022-10-18T20:29:25.313Z,8.18
2022-10-18T20:31:55.548Z,5.40
2022-10-18T20:34:25.948Z,6.25
2022-10-18T20:36:56.705Z,6.90
2022-10-18T20:39:26.878Z,5.95
2022-10-18T20:41:54.271Z,6.43
2022-10-18T20:44:22.661Z,6.13
2022-10-18T20:46:50.091Z,7.18
2022-10-18T20:49:17.679Z,7.43
2022-10-18T20:51:45.332Z,6.78
2022-10-18T20:54:15.940Z,7.85
2022-10-18T20:56:43.738Z,8.82
2022-10-18T20:59:11.700Z,8.20
2022-10-18T21:01:39.976Z,7.47
2022-10-18T21:04:10.494Z,8.88
2022-10-18T21:06:42.219Z,8.77
2022-10-18T21:09:12.006Z,8.88
2022-10-18T21:11:43.242Z,8.07
2022-10-18T21:14:12.651Z,8.55
2022-10-18T21:16:40.083Z,8.10
2022-10-18T21:19:08.599Z,8.52
2022-10-18T21:21:36.448Z,9.02
2022-10-18T21:24:07.024Z,9.20
2022-10-18T21:26:35.984Z,7.88
2022-10-18T21:29:04.449Z,7.43
2022-10-18T21:31:36.129Z,7.13
2022-10-18T21:34:05.199Z,9.32
2022-10-18T21:36:33.601Z,7.90
2022-10-18T21:39:01.038Z,7.82
2022-10-18T21:41:28.411Z,8.20
2022-10-18T21:43:56.021Z,7.70
2022-10-18T21:46:24.795Z,7.13
2022-10-18T21:48:53.925Z,8.30
2022-10-18T21:51:22.296Z,7.63
2022-10-18T21:53:50.988Z,8.10
2022-10-18T21:56:25.690Z,7.47
2022-10-18T21:58:53.512Z,8.35
2022-10-18T22:01:24.035Z,7.20
2022-10-18T22:03:52.719Z,6.15
2022-10-18T22:06:20.567Z,7.05
2022-10-18T22:08:49.621Z,6.68
2022-10-18T22:11:17.565Z,5.78
2022-10-18T22:13:45.057Z,5.53
2022-10-18T22:16:15.930Z,7.65
2022-10-18T22:18:44.169Z,6.20
2022-10-18T22:21:12.701Z,10.18
2022-10-18T22:23:45.014Z,6.90
2022-10-18T22:26:15.443Z,6.55
2022-10-18T22:28:44.017Z,6.43
2022-10-18T22:31:15.667Z,6.45
2022-10-18T22:33:43.034Z,5.85
2022-10-18T22:36:10.568Z,6.07
2022-10-18T22:38:38.555Z,6.93
2022-10-18T22:41:09.778Z,6.40
2022-10-18T22:43:37.588Z,6.30
2022-10-18T22:46:06.396Z,6.22
2022-10-18T22:48:33.718Z,5.80
2022-10-18T22:51:01.556Z,6.03
2022-10-18T22:53:28.988Z,6.78
2022-10-18T22:55:56.286Z,7.47
2022-10-18T22:58:23.713Z,5.55
2022-10-18T23:00:51.000Z,5.88
2022-10-18T23:03:18.955Z,5.95
2022-10-18T23:05:47.218Z,6.20
2022-10-18T23:08:14.943Z,7.22
2022-10-18T23:10:42.996Z,5.15
2022-10-18T23:13:10.853Z,5.90
2022-10-18T23:15:42.505Z,5.53
2022-10-18T23:18:10.183Z,5.68
2022-10-18T23:20:37.407Z,5.50
2022-10-18T23:23:04.703Z,5.90
2022-10-18T23:25:32.052Z,5.38
2022-10-18T23:27:59.452Z,5.82
2022-10-18T23:30:26.917Z,5.57
2022-10-18T23:32:56.936Z,5.30
2022-10-18T23:35:24.334Z,5.72
2022-10-18T23:37:55.357Z,7.22
2022-10-18T23:40:22.570Z,5.80
2022-10-18T23:42:50.502Z,6.35
2022-10-18T23:45:17.818Z,6.47
2022-10-18T23:47:45.076Z,6.18
2022-10-18T23:50:12.361Z,5.40
2022-10-18T23:52:39.696Z,6.28
2022-10-18T23:55:07.336Z,5.63
2022-10-18T23:57:35.046Z,5.72
